createdAt,value
2023-04-27T00:01:19.180Z,0
2023-04-27T00:02:59.834Z,0
2023-04-27T00:04:40.199Z,0
2023-04-27T00:06:20.588Z,0
2023-04-27T00:08:00.891Z,0
2023-04-27T00:09:41.287Z,0
2023-04-27T00:11:21.781Z,0
2023-04-27T00:13:02.172Z,0
2023-04-27T00:14:42.520Z,0
2023-04-27T00:16:23.017Z,0
2023-04-27T00:18:03.314Z,0
2023-04-27T00:19:43.726Z,0
2023-04-27T00:21:24.124Z,0
2023-04-27T00:23:04.592Z,0
2023-04-27T00:24:44.949Z,0
2023-04-27T00:26:25.385Z,0
2023-04-27T00:28:05.787Z,0
2023-04-27T00:29:46.165Z,0
2023-04-27T00:31:26.472Z,0
2023-04-27T00:33:06.865Z,0
2023-04-27T00:34:47.254Z,0
2023-04-27T00:36:27.725Z,0
2023-04-27T00:38:08.065Z,0
2023-04-27T00:39:48.412Z,0
2023-04-27T00:41:28.924Z,0
2023-04-27T00:43:09.328Z,0
2023-04-27T00:44:49.780Z,0
2023-04-27T00:46:30.200Z,0
2023-04-27T00:48:10.569Z,0
2023-04-27T00:49:50.898Z,0
2023-04-27T00:51:31.344Z,0
2023-04-27T00:53:11.706Z,0
2023-04-27T00:54:52.100Z,0
2023-04-27T00:56:32.500Z,0
2023-04-27T00:58:12.907Z,0
2023-04-27T00:59:53.274Z,0
2023-04-27T01:01:33.779Z,0
2023-04-27T01:03:14.243Z,0
2023-04-27T01:04:54.497Z,0
2023-04-27T01:06:34.815Z,0
2023-04-27T01:08:15.248Z,0
2023-04-27T01:09:55.607Z,0
2023-04-27T01:11:36.007Z,0
2023-04-27T01:13:16.514Z,0
2023-04-27T01:14:56.888Z,0
2023-04-27T01:16:37.330Z,0
2023-04-27T01:18:17.665Z,0
2023-04-27T01:19:58.154Z,0
2023-04-27T01:21:38.616Z,0
2023-04-27T01:23:19.028Z,0
2023-04-27T01:24:59.434Z,0
2023-04-27T01:26:39.810Z,0
2023-04-27T01:28:20.203Z,0
2023-04-27T01:30:00.625Z,0
2023-04-27T01:31:41.076Z,0
2023-04-27T01:33:21.394Z,0
2023-04-27T01:35:01.817Z,0
2023-04-27T01:36:42.205Z,0
2023-04-27T01:38:22.668Z,0
2023-04-27T01:40:03.021Z,0
2023-04-27T01:41:43.404Z,0
2023-04-27T01:43:23.798Z,0
2023-04-27T01:45:04.257Z,0
2023-04-27T01:46:44.736Z,0
2023-04-27T01:48:25.053Z,0
2023-04-27T01:50:05.443Z,0
2023-04-27T01:51:45.781Z,0
2023-04-27T01:53:26.112Z,0
2023-04-27T01:55:06.496Z,0
2023-04-27T01:56:46.931Z,0
2023-04-27T01:58:27.283Z,0
2023-04-27T02:00:07.735Z,0
2023-04-27T02:01:48.179Z,0
2023-04-27T02:03:28.606Z,0
2023-04-27T02:05:08.909Z,0
2023-04-27T02:06:49.248Z,0
2023-04-27T02:08:29.708Z,0
2023-04-27T02:10:10.066Z,0
2023-04-27T02:11:50.446Z,0
2023-04-27T02:13:30.838Z,0
2023-04-27T02:15:11.250Z,0
2023-04-27T02:16:51.673Z,0
2023-04-27T02:18:32.137Z,0
2023-04-27T02:20:12.539Z,0
2023-04-27T02:21:52.912Z,0
2023-04-27T02:23:33.453Z,0
2023-04-27T02:25:13.808Z,0
2023-04-27T02:26:54.265Z,0
2023-04-27T02:28:34.728Z,0
2023-04-27T02:30:15.089Z,0
2023-04-27T02:31:55.542Z,0
2023-04-27T02:33:35.921Z,0
2023-04-27T02:35:16.317Z,0
2023-04-27T02:36:56.791Z,0
2023-04-27T02:38:37.220Z,0
2023-04-27T02:40:17.602Z,0
2023-04-27T02:41:58.009Z,0
2023-04-27T02:43:38.413Z,0
2023-04-27T02:45:18.778Z,0
2023-04-27T02:46:59.295Z,0
2023-04-27T02:48:39.499Z,0
2023-04-27T02:50:19.879Z,0
2023-04-27T02:52:00.280Z,0
2023-04-27T02:53:40.691Z,0
2023-04-27T02:55:21.073Z,0
2023-04-27T02:57:01.515Z,0
2023-04-27T02:58:41.890Z,0
2023-04-27T03:00:22.255Z,0
2023-04-27T03:02:02.717Z,0
2023-04-27T03:03:43.272Z,0
2023-04-27T03:05:23.517Z,0
2023-04-27T03:07:03.866Z,0
2023-04-27T03:08:44.275Z,0
2023-04-27T03:10:24.705Z,0
2023-04-27T03:12:05.140Z,0
2023-04-27T03:13:45.456Z,0
2023-04-27T03:15:25.944Z,0
2023-04-27T03:17:06.249Z,1
2023-04-27T03:18:46.719Z,1
2023-04-27T03:20:27.155Z,1
2023-04-27T03:22:07.567Z,1
2023-04-27T03:23:47.955Z,1
2023-04-27T03:25:28.377Z,1
2023-04-27T03:27:08.824Z,2
2023-04-27T03:28:49.247Z,3
2023-04-27T03:30:29.741Z,3
2023-04-27T03:32:10.284Z,5
2023-04-27T03:33:50.564Z,7
2023-04-27T03:35:30.996Z,9
2023-04-27T03:37:11.431Z,13
2023-04-27T03:38:51.936Z,16
2023-04-27T03:40:32.313Z,21
2023-04-27T03:42:12.787Z,28
2023-04-27T03:43:53.137Z,37
2023-04-27T03:45:33.590Z,47
2023-04-27T03:47:13.950Z,58
2023-04-27T03:48:54.258Z,74
2023-04-27T03:50:34.662Z,92
2023-04-27T03:52:14.913Z,114
2023-04-27T03:53:55.305Z,140
2023-04-27T03:55:35.745Z,170
2023-04-27T03:57:16.151Z,206
2023-04-27T03:58:56.452Z,245
2023-04-27T04:00:36.861Z,288
2023-04-27T04:02:17.316Z,329
2023-04-27T04:03:57.978Z,373
2023-04-27T04:05:38.043Z,418
2023-04-27T04:07:18.373Z,467
2023-04-27T04:08:58.832Z,520
2023-04-27T04:10:39.227Z,575
2023-04-27T04:12:19.630Z,631
2023-04-27T04:14:00.132Z,697
2023-04-27T04:15:40.477Z,765
2023-04-27T04:17:20.796Z,835
2023-04-27T04:19:01.163Z,919
2023-04-27T04:20:41.628Z,982
2023-04-27T04:22:21.996Z,1043
2023-04-27T04:24:02.423Z,1109
2023-04-27T04:25:42.939Z,1179
2023-04-27T04:27:23.306Z,1261
2023-04-27T04:29:03.794Z,1347
2023-04-27T04:30:44.254Z,1434
2023-04-27T04:32:24.664Z,1532
2023-04-27T04:34:04.996Z,1639
2023-04-27T04:35:45.347Z,1750
2023-04-27T04:37:25.779Z,1872
2023-04-27T04:39:06.268Z,2015
2023-04-27T04:40:46.573Z,2189
2023-04-27T04:42:27.114Z,2413
2023-04-27T04:44:07.455Z,2657
2023-04-27T04:45:47.835Z,2880
2023-04-27T04:47:28.309Z,3033
2023-04-27T04:49:08.623Z,3139
2023-04-27T04:50:49.060Z,3243
2023-04-27T04:52:29.437Z,3344
2023-04-27T04:54:09.830Z,3451
2023-04-27T04:55:50.293Z,3572
2023-04-27T04:57:30.656Z,3694
2023-04-27T04:59:11.211Z,3809
2023-04-27T05:00:51.520Z,3914
2023-04-27T05:02:32.075Z,4012
2023-04-27T05:04:12.597Z,4134
2023-04-27T05:05:52.960Z,4235
2023-04-27T05:07:33.347Z,4327
2023-04-27T05:09:13.911Z,4424
2023-04-27T05:10:54.155Z,4521
2023-04-27T05:12:34.625Z,4641
2023-04-27T05:14:15.081Z,4780
2023-04-27T05:15:55.454Z,4925
2023-04-27T05:17:35.841Z,5141
2023-04-27T05:19:16.284Z,5187
2023-04-27T05:20:56.655Z,5006
2023-04-27T05:22:37.081Z,5014
2023-04-27T05:24:17.506Z,5167
2023-04-27T05:25:57.897Z,5202
2023-04-27T05:27:38.314Z,5202
2023-04-27T05:29:18.650Z,5269
2023-04-27T05:30:59.017Z,5473
2023-04-27T05:32:39.431Z,5524
2023-04-27T05:34:19.889Z,5558
2023-04-27T05:36:00.283Z,5593
2023-04-27T05:37:40.663Z,5641
2023-04-27T05:39:21.060Z,5678
2023-04-27T05:41:01.495Z,5723
2023-04-27T05:42:41.848Z,5781
2023-04-27T05:44:22.263Z,5835
2023-04-27T05:46:02.651Z,5950
2023-04-27T05:47:43.188Z,6153
2023-04-27T05:49:23.509Z,6195
2023-04-27T05:51:03.892Z,6219
2023-04-27T05:52:44.329Z,6224
2023-04-27T05:54:24.699Z,6241
2023-04-27T05:56:05.081Z,6268
2023-04-27T05:57:47.705Z,6314
2023-04-27T05:59:25.966Z,6398
2023-04-27T06:01:06.343Z,6425
2023-04-27T06:02:46.905Z,6483
2023-04-27T06:04:27.333Z,6526
2023-04-27T06:06:07.498Z,6581
2023-04-27T06:07:47.922Z,6625
2023-04-27T06:09:28.275Z,6685
2023-04-27T06:11:08.698Z,6713
2023-04-27T06:12:49.184Z,6741
2023-04-27T06:14:29.557Z,6773
2023-04-27T06:16:10.018Z,6834
2023-04-27T06:17:50.384Z,6887
2023-04-27T06:19:30.725Z,6919
2023-04-27T06:21:11.130Z,6922
2023-04-27T06:22:51.567Z,6935
2023-04-27T06:24:31.986Z,6952
2023-04-27T06:26:12.398Z,6995
2023-04-27T06:27:52.921Z,7025
2023-04-27T06:29:33.373Z,7067
2023-04-27T06:31:13.778Z,7063
2023-04-27T06:32:54.209Z,7148
2023-04-27T06:34:34.576Z,8401
2023-04-27T06:36:15.014Z,8350
2023-04-27T06:37:55.448Z,7648
2023-04-27T06:39:35.806Z,7602
2023-04-27T06:41:16.228Z,7538
2023-04-27T06:42:56.638Z,7549
2023-04-27T06:44:37.033Z,7562
2023-04-27T06:46:17.475Z,7563
2023-04-27T06:47:57.853Z,7582
2023-04-27T06:49:38.298Z,7624
2023-04-27T06:51:18.776Z,7659
2023-04-27T06:52:59.242Z,7718
2023-04-27T06:54:39.688Z,7765
2023-04-27T06:56:20.055Z,7956
2023-04-27T06:58:00.531Z,8957
2023-04-27T06:59:40.941Z,17203
2023-04-27T07:01:21.352Z,27736
2023-04-27T07:03:01.810Z,25472
2023-04-27T07:04:42.174Z,12256
2023-04-27T07:06:22.492Z,10464
2023-04-27T07:08:07.010Z,13984
2023-04-27T07:09:43.332Z,15328
2023-04-27T07:11:23.732Z,14588
2023-04-27T07:13:04.809Z,15134
2023-04-27T07:14:44.586Z,15443
2023-04-27T07:16:25.011Z,15488
2023-04-27T07:18:05.560Z,16416
2023-04-27T07:19:45.816Z,16400
2023-04-27T07:21:26.203Z,17264
2023-04-27T07:23:06.618Z,15920
2023-04-27T07:24:47.030Z,16304
2023-04-27T07:26:27.423Z,16176
2023-04-27T07:28:07.846Z,39640
2023-04-27T07:29:48.275Z,65535
2023-04-27T07:31:28.760Z,55328
2023-04-27T07:33:09.144Z,53992
2023-04-27T07:34:53.461Z,44032
2023-04-27T07:36:29.964Z,50728
2023-04-27T07:38:10.354Z,52896
2023-04-27T07:39:50.831Z,32040
2023-04-27T07:41:31.142Z,58040
2023-04-27T07:43:11.495Z,52328
2023-04-27T07:44:51.861Z,43176
2023-04-27T07:46:32.262Z,41872
2023-04-27T07:48:12.737Z,43008
2023-04-27T07:49:53.184Z,38800
2023-04-27T07:51:33.545Z,39296
2023-04-27T07:53:13.950Z,41704
2023-04-27T07:54:54.345Z,53304
2023-04-27T07:56:34.792Z,50192
2023-04-27T07:58:15.198Z,36000
2023-04-27T07:59:55.578Z,37320
2023-04-27T08:01:36.044Z,50672
2023-04-27T08:03:16.604Z,58704
2023-04-27T08:04:57.217Z,52048
2023-04-27T08:06:38.015Z,43712
2023-04-27T08:08:18.059Z,49728
2023-04-27T08:09:57.980Z,64272
2023-04-27T08:11:38.391Z,65535
2023-04-27T08:13:18.855Z,63680
2023-04-27T08:14:59.287Z,58160
2023-04-27T08:16:39.692Z,48360
2023-04-27T08:18:20.101Z,43304
2023-04-27T08:20:00.527Z,44680
2023-04-27T08:21:40.926Z,51320
2023-04-27T08:23:21.283Z,62600
2023-04-27T08:25:01.714Z,65096
2023-04-27T08:26:42.143Z,55968
2023-04-27T08:28:22.545Z,50168
2023-04-27T08:30:02.951Z,56784
2023-04-27T08:31:43.432Z,54120
2023-04-27T08:33:23.738Z,51632
2023-04-27T08:35:04.191Z,59200
2023-04-27T08:36:44.620Z,52792
2023-04-27T08:38:25.767Z,50248
2023-04-27T08:40:05.439Z,45504
2023-04-27T08:41:45.823Z,43576
2023-04-27T08:43:26.219Z,58512
2023-04-27T08:45:06.591Z,65535
2023-04-27T08:46:46.981Z,65535
2023-04-27T08:48:27.343Z,51248
2023-04-27T08:50:07.703Z,36096
2023-04-27T08:51:48.130Z,48936
2023-04-27T08:53:28.490Z,64408
2023-04-27T08:55:08.885Z,65535
2023-04-27T08:56:49.163Z,65535
2023-04-27T08:58:29.546Z,63112
2023-04-27T09:00:09.894Z,65535
2023-04-27T09:01:50.312Z,65535
2023-04-27T09:03:30.903Z,55800
2023-04-27T09:05:11.278Z,45056
2023-04-27T09:06:51.532Z,65535
2023-04-27T09:08:31.811Z,65535
2023-04-27T09:10:12.254Z,65535
2023-04-27T09:11:52.699Z,65535
2023-04-27T09:13:33.102Z,65535
2023-04-27T09:15:13.522Z,65535
2023-04-27T09:16:53.921Z,65535
2023-04-27T09:18:34.278Z,65535
2023-04-27T09:20:14.723Z,65535
2023-04-27T09:21:55.140Z,65535
2023-04-27T09:23:35.590Z,65535
2023-04-27T09:25:15.904Z,65535
2023-04-27T09:26:56.677Z,65535
2023-04-27T09:28:36.640Z,65535
2023-04-27T09:30:17.054Z,65535
2023-04-27T09:31:57.502Z,65535
2023-04-27T09:33:37.888Z,65535
2023-04-27T09:35:18.244Z,65535
2023-04-27T09:36:58.676Z,65535
2023-04-27T09:38:39.029Z,65535
2023-04-27T09:40:19.496Z,65535
2023-04-27T09:41:59.828Z,65535
2023-04-27T09:43:40.257Z,65535
2023-04-27T09:45:20.716Z,65535
2023-04-27T09:47:01.156Z,65535
2023-04-27T09:48:41.541Z,65535
2023-04-27T09:50:21.933Z,65535
2023-04-27T09:52:02.386Z,65535
2023-04-27T09:53:42.695Z,65535
2023-04-27T09:55:23.116Z,65535
2023-04-27T09:57:03.563Z,65535
2023-04-27T09:58:43.858Z,65535
2023-04-27T10:00:24.241Z,65535
2023-04-27T10:02:17.194Z,65535
2023-04-27T10:03:45.233Z,65535
2023-04-27T10:05:25.669Z,65535
2023-04-27T10:07:05.991Z,65535
2023-04-27T10:08:46.383Z,65535
2023-04-27T10:10:26.798Z,65535
2023-04-27T10:12:07.197Z,65535
2023-04-27T10:13:47.613Z,65535
2023-04-27T10:15:27.941Z,65535
2023-04-27T10:17:08.388Z,65535
2023-04-27T10:18:48.760Z,65535
2023-04-27T10:20:29.208Z,65535
2023-04-27T10:22:09.609Z,65535
2023-04-27T10:23:50.052Z,65535
2023-04-27T10:25:30.546Z,65535
2023-04-27T10:27:10.893Z,65535
2023-04-27T10:28:51.341Z,65535
2023-04-27T10:30:31.802Z,65535
2023-04-27T10:32:12.194Z,65535
2023-04-27T10:33:52.603Z,65535
2023-04-27T10:35:32.928Z,65535
2023-04-27T10:37:13.280Z,65535
2023-04-27T10:38:53.740Z,65535
2023-04-27T10:40:34.196Z,65535
2023-04-27T10:42:14.652Z,65535
2023-04-27T10:43:55.043Z,65535
2023-04-27T10:45:35.490Z,65535
2023-04-27T10:47:15.894Z,55736
2023-04-27T10:48:56.326Z,65535
2023-04-27T10:50:36.773Z,65535
2023-04-27T10:52:17.133Z,65535
2023-04-27T10:53:57.593Z,65535
2023-04-27T10:55:37.998Z,63680
2023-04-27T10:57:18.286Z,65535
2023-04-27T10:58:58.751Z,65535
2023-04-27T11:00:39.078Z,65535
2023-04-27T11:02:19.530Z,65535
2023-04-27T11:03:59.934Z,57720
2023-04-27T11:05:40.276Z,52024
2023-04-27T11:07:20.704Z,65535
2023-04-27T11:09:01.108Z,65535
2023-04-27T11:10:41.538Z,65535
2023-04-27T11:12:22.014Z,65535
2023-04-27T11:14:02.401Z,65535
2023-04-27T11:15:42.880Z,65535
2023-04-27T11:17:23.214Z,65535
2023-04-27T11:19:03.639Z,65535
2023-04-27T11:20:44.081Z,65535
2023-04-27T11:22:24.526Z,65535
2023-04-27T11:24:04.956Z,65535
2023-04-27T11:25:45.295Z,65535
2023-04-27T11:27:25.603Z,65535
2023-04-27T11:29:05.991Z,65535
2023-04-27T11:30:46.430Z,65535
2023-04-27T11:32:26.891Z,65535
2023-04-27T11:34:07.956Z,65535
2023-04-27T11:35:47.625Z,65535
2023-04-27T11:37:28.074Z,65535
2023-04-27T11:39:08.544Z,65535
2023-04-27T11:40:48.830Z,65535
2023-04-27T11:42:29.329Z,65535
2023-04-27T11:44:09.561Z,65535
2023-04-27T11:45:49.906Z,65535
2023-04-27T11:47:30.446Z,65535
2023-04-27T11:49:10.931Z,65535
2023-04-27T11:50:51.223Z,65535
2023-04-27T11:52:31.674Z,65535
2023-04-27T11:54:12.390Z,65535
2023-04-27T11:55:52.509Z,65535
2023-04-27T11:57:32.954Z,65535
2023-04-27T11:59:13.542Z,65535
2023-04-27T12:00:53.772Z,65535
2023-04-27T12:02:34.250Z,65535
2023-04-27T12:04:14.977Z,65535
2023-04-27T12:05:55.024Z,65535
2023-04-27T12:07:35.323Z,65535
2023-04-27T12:09:15.702Z,65535
2023-04-27T12:10:56.006Z,65535
2023-04-27T12:12:36.392Z,65535
2023-04-27T12:14:17.021Z,65535
2023-04-27T12:15:58.492Z,65535
2023-04-27T12:17:37.599Z,65535
2023-04-27T12:19:17.916Z,65535
2023-04-27T12:21:02.757Z,65535
2023-04-27T12:22:38.729Z,65535
2023-04-27T12:24:19.107Z,65535
2023-04-27T12:25:59.484Z,65535
2023-04-27T12:27:39.917Z,65535
2023-04-27T12:29:20.350Z,65535
2023-04-27T12:31:00.746Z,65535
2023-04-27T12:32:41.165Z,65535
2023-04-27T12:34:21.549Z,65535
2023-04-27T12:36:02.004Z,64352
2023-04-27T12:37:42.364Z,47416
2023-04-27T12:39:22.748Z,50248
2023-04-27T12:41:03.108Z,65535
2023-04-27T12:42:43.521Z,65535
2023-04-27T12:44:23.944Z,65535
2023-04-27T12:46:04.485Z,65535
2023-04-27T12:48:01.058Z,65535
2023-04-27T12:49:25.270Z,61016
2023-04-27T12:51:05.614Z,65535
2023-04-27T12:52:46.039Z,65535
2023-04-27T12:54:26.455Z,65535
2023-04-27T12:56:06.774Z,65535
2023-04-27T12:57:47.283Z,53960
2023-04-27T12:59:27.709Z,65535
2023-04-27T13:01:08.185Z,65535
2023-04-27T13:02:48.719Z,65535
2023-04-27T13:04:29.207Z,65535
2023-04-27T13:06:09.500Z,65535
2023-04-27T13:07:49.919Z,65535
2023-04-27T13:09:30.365Z,65535
2023-04-27T13:11:10.774Z,65535
2023-04-27T13:12:51.169Z,65535
2023-04-27T13:14:31.548Z,65535
2023-04-27T13:16:11.934Z,65535
2023-04-27T13:17:52.489Z,65535
2023-04-27T13:19:32.759Z,65535
2023-04-27T13:21:13.195Z,65535
2023-04-27T13:22:53.632Z,65535
2023-04-27T13:24:34.040Z,52584
2023-04-27T13:26:14.511Z,47576
2023-04-27T13:27:54.951Z,29384
2023-04-27T13:29:35.305Z,59448
2023-04-27T13:31:15.760Z,65535
2023-04-27T13:33:04.262Z,48312
2023-04-27T13:34:36.440Z,62552
2023-04-27T13:36:16.899Z,49208
2023-04-27T13:37:57.232Z,65535
2023-04-27T13:39:37.741Z,65535
2023-04-27T13:41:18.028Z,65535
2023-04-27T13:42:58.423Z,63528
2023-04-27T13:44:38.786Z,58072
2023-04-27T13:46:19.150Z,65535
2023-04-27T13:47:59.653Z,65535
2023-04-27T13:49:39.950Z,61544
2023-04-27T13:51:20.370Z,59280
2023-04-27T13:53:00.751Z,63824
2023-04-27T13:54:41.104Z,50192
2023-04-27T13:56:21.471Z,60592
2023-04-27T13:58:01.774Z,62520
2023-04-27T13:59:42.193Z,52048
2023-04-27T14:01:22.718Z,51688
2023-04-27T14:03:03.136Z,59912
2023-04-27T14:04:43.449Z,52176
2023-04-27T14:06:23.715Z,63368
2023-04-27T14:08:04.195Z,29000
2023-04-27T14:09:44.624Z,57632
2023-04-27T14:11:25.022Z,56888
2023-04-27T14:13:05.470Z,57856
2023-04-27T14:14:45.939Z,50896
2023-04-27T14:16:26.403Z,46832
2023-04-27T14:18:06.745Z,42568
2023-04-27T14:19:47.087Z,44592
2023-04-27T14:21:27.475Z,49272
2023-04-27T14:23:07.902Z,62832
2023-04-27T14:24:48.285Z,63824
2023-04-27T14:26:28.767Z,57272
2023-04-27T14:28:09.147Z,58024
2023-04-27T14:29:49.643Z,65535
2023-04-27T14:31:30.081Z,65535
2023-04-27T14:33:10.609Z,60248
2023-04-27T14:34:50.958Z,49048
2023-04-27T14:36:31.298Z,55864
2023-04-27T14:38:11.690Z,60608
2023-04-27T14:39:52.064Z,43872
2023-04-27T14:41:32.489Z,41952
2023-04-27T14:43:12.927Z,40904
2023-04-27T14:44:53.298Z,41320
2023-04-27T14:46:33.686Z,38000
2023-04-27T14:48:14.025Z,38136
2023-04-27T14:49:54.352Z,45584
2023-04-27T14:51:34.684Z,44680
2023-04-27T14:53:15.194Z,47376
2023-04-27T14:54:55.543Z,42376
2023-04-27T14:56:35.896Z,37624
2023-04-27T14:58:16.270Z,47384
2023-04-27T14:59:56.720Z,55784
2023-04-27T15:01:37.249Z,53744
2023-04-27T15:03:17.693Z,49456
2023-04-27T15:04:58.013Z,46056
2023-04-27T15:06:38.351Z,41808
2023-04-27T15:08:18.792Z,39008
2023-04-27T15:10:02.258Z,43664
2023-04-27T15:11:39.677Z,43624
2023-04-27T15:13:20.039Z,41440
2023-04-27T15:15:00.464Z,47024
2023-04-27T15:16:40.857Z,42544
2023-04-27T15:18:21.383Z,35184
2023-04-27T15:20:01.727Z,31152
2023-04-27T15:21:42.124Z,31528
2023-04-27T15:23:22.525Z,34568
2023-04-27T15:25:02.937Z,31432
2023-04-27T15:26:43.365Z,30640
2023-04-27T15:28:23.748Z,32840
2023-04-27T15:30:04.158Z,34600
2023-04-27T15:31:44.613Z,40728
2023-04-27T15:33:25.047Z,44816
2023-04-27T15:35:05.469Z,44664
2023-04-27T15:36:45.923Z,41304
2023-04-27T15:38:29.406Z,38296
2023-04-27T15:40:06.846Z,33696
2023-04-27T15:41:47.317Z,35264
2023-04-27T15:43:27.749Z,36616
2023-04-27T15:45:10.010Z,34968
2023-04-27T15:46:48.559Z,35112
2023-04-27T15:48:28.940Z,36192
2023-04-27T15:50:09.310Z,32832
2023-04-27T15:51:49.703Z,34904
2023-04-27T15:53:30.186Z,36536
2023-04-27T15:55:10.678Z,29448
2023-04-27T15:56:51.098Z,25872
2023-04-27T15:58:31.499Z,32168
2023-04-27T16:00:11.924Z,31320
2023-04-27T16:01:52.364Z,26944
2023-04-27T16:03:32.794Z,25632
2023-04-27T16:05:20.640Z,28040
2023-04-27T16:07:00.612Z,27032
2023-04-27T16:08:40.970Z,24512
2023-04-27T16:10:21.317Z,23208
2023-04-27T16:12:01.734Z,22760
2023-04-27T16:13:42.092Z,21992
2023-04-27T16:15:22.563Z,22280
2023-04-27T16:17:02.916Z,18696
2023-04-27T16:18:43.285Z,18456
2023-04-27T16:20:23.711Z,19696
2023-04-27T16:22:04.128Z,21400
2023-04-27T16:23:44.735Z,21440
2023-04-27T16:25:24.836Z,19200
2023-04-27T16:27:05.212Z,20424
2023-04-27T16:28:45.519Z,19472
2023-04-27T16:30:25.891Z,17568
2023-04-27T16:32:06.356Z,18120
2023-04-27T16:33:46.687Z,18272
2023-04-27T16:35:27.044Z,16984
2023-04-27T16:37:07.432Z,15473
2023-04-27T16:38:47.851Z,14277
2023-04-27T16:40:28.211Z,13679
2023-04-27T16:42:08.539Z,13023
2023-04-27T16:43:48.921Z,12624
2023-04-27T16:45:29.272Z,12173
2023-04-27T16:47:09.659Z,11847
2023-04-27T16:48:50.213Z,11635
2023-04-27T16:50:30.499Z,11536
2023-04-27T16:52:10.968Z,11449
2023-04-27T16:53:51.373Z,11292
2023-04-27T16:55:31.788Z,11070
2023-04-27T16:57:12.202Z,10794
2023-04-27T16:58:52.622Z,10524
2023-04-27T17:00:33.014Z,10380
2023-04-27T17:02:23.635Z,10394
2023-04-27T17:03:54.001Z,10432
2023-04-27T17:05:34.220Z,10358
2023-04-27T17:07:14.629Z,10143
2023-04-27T17:08:54.979Z,9910
2023-04-27T17:10:35.429Z,9751
2023-04-27T17:12:15.871Z,9656
2023-04-27T17:13:56.252Z,9572
2023-04-27T17:15:36.627Z,9419
2023-04-27T17:17:16.999Z,9179
2023-04-27T17:18:57.383Z,8914
2023-04-27T17:20:39.741Z,8672
2023-04-27T17:22:18.251Z,8512
2023-04-27T17:23:58.617Z,8440
2023-04-27T17:25:39.032Z,8387
2023-04-27T17:27:19.503Z,8266
2023-04-27T17:29:00.024Z,8012
2023-04-27T17:30:40.278Z,7676
2023-04-27T17:32:20.826Z,7257
2023-04-27T17:34:01.131Z,6761
2023-04-27T17:35:41.469Z,6326
2023-04-27T17:37:21.881Z,5990
2023-04-27T17:39:02.343Z,5684
2023-04-27T17:40:42.739Z,5306
2023-04-27T17:42:23.110Z,4986
2023-04-27T17:44:03.443Z,4729
2023-04-27T17:45:43.810Z,4505
2023-04-27T17:47:24.233Z,4359
2023-04-27T17:49:04.685Z,4289
2023-04-27T17:50:45.021Z,4197
2023-04-27T17:52:25.403Z,4098
2023-04-27T17:54:05.829Z,3952
2023-04-27T17:55:46.279Z,3744
2023-04-27T17:57:26.632Z,3483
2023-04-27T17:59:07.061Z,3190
2023-04-27T18:00:47.464Z,2939
2023-04-27T18:02:27.944Z,2771
2023-04-27T18:04:08.425Z,2633
2023-04-27T18:05:55.805Z,2499
2023-04-27T18:07:29.071Z,2344
2023-04-27T18:09:09.550Z,2163
2023-04-27T18:10:49.964Z,1960
2023-04-27T18:12:30.421Z,1771
2023-04-27T18:14:10.907Z,1620
2023-04-27T18:15:54.399Z,1485
2023-04-27T18:17:31.727Z,1349
2023-04-27T18:19:12.077Z,1222
2023-04-27T18:20:52.358Z,1112
2023-04-27T18:22:32.766Z,1006
2023-04-27T18:24:13.215Z,901
2023-04-27T18:25:53.680Z,804
2023-04-27T18:27:34.097Z,714
2023-04-27T18:29:14.666Z,633
2023-04-27T18:30:54.943Z,560
2023-04-27T18:32:35.437Z,496
2023-04-27T18:34:15.804Z,438
2023-04-27T18:35:56.206Z,388
2023-04-27T18:37:36.561Z,341
2023-04-27T18:39:17.074Z,297
2023-04-27T18:40:57.362Z,256
2023-04-27T18:42:37.772Z,221
2023-04-27T18:44:18.158Z,190
2023-04-27T18:45:58.582Z,161
2023-04-27T18:47:39.030Z,135
2023-04-27T18:49:19.331Z,113
2023-04-27T18:50:59.720Z,92
2023-04-27T18:52:40.064Z,75
2023-04-27T18:54:20.502Z,60
2023-04-27T18:56:00.969Z,47
2023-04-27T18:57:41.406Z,37
2023-04-27T18:59:21.742Z,28
2023-04-27T19:01:02.146Z,21
2023-04-27T19:02:42.606Z,17
2023-04-27T19:04:22.966Z,12
2023-04-27T19:06:03.318Z,9
2023-04-27T19:07:43.728Z,7
2023-04-27T19:09:24.062Z,5
2023-04-27T19:11:04.459Z,4
2023-04-27T19:12:44.892Z,3
2023-04-27T19:14:25.252Z,2
2023-04-27T19:16:05.664Z,2
2023-04-27T19:17:47.286Z,1
2023-04-27T19:19:26.773Z,1
2023-04-27T19:21:08.987Z,1
2023-04-27T19:22:47.306Z,1
2023-04-27T19:24:27.739Z,1
2023-04-27T19:26:12.884Z,0
2023-04-27T19:27:48.640Z,0
2023-04-27T19:29:32.078Z,0
2023-04-27T19:31:09.473Z,0
2023-04-27T19:32:49.860Z,0
2023-04-27T19:34:30.269Z,0
2023-04-27T19:36:10.646Z,0
2023-04-27T19:37:50.933Z,0
2023-04-27T19:39:33.074Z,0
2023-04-27T19:41:11.670Z,0
2023-04-27T19:42:52.076Z,0
2023-04-27T19:44:32.464Z,0
2023-04-27T19:46:12.887Z,0
2023-04-27T19:47:53.266Z,0
2023-04-27T19:49:33.650Z,0
2023-04-27T19:51:13.967Z,0
2023-04-27T19:52:54.363Z,0
2023-04-27T19:54:34.762Z,0
2023-04-27T19:56:15.105Z,0
2023-04-27T19:57:55.504Z,0
2023-04-27T19:59:35.886Z,0
2023-04-27T20:01:16.417Z,0
2023-04-27T20:02:56.920Z,0
2023-04-27T20:04:37.348Z,0
2023-04-27T20:06:17.516Z,0
2023-04-27T20:07:57.896Z,0
2023-04-27T20:09:38.260Z,0
2023-04-27T20:11:18.700Z,0
2023-04-27T20:12:59.058Z,0
2023-04-27T20:14:39.507Z,0
2023-04-27T20:16:19.927Z,0
2023-04-27T20:18:00.246Z,0
2023-04-27T20:19:43.733Z,0
2023-04-27T20:21:20.941Z,0
2023-04-27T20:23:01.328Z,0
2023-04-27T20:24:41.712Z,0
2023-04-27T20:26:22.115Z,0
2023-04-27T20:28:02.571Z,0
2023-04-27T20:29:43.015Z,0
2023-04-27T20:31:23.501Z,0
2023-04-27T20:33:03.895Z,0
2023-04-27T20:34:44.234Z,0
2023-04-27T20:36:24.761Z,0
2023-04-27T20:38:05.113Z,0
2023-04-27T20:39:45.510Z,0
2023-04-27T20:41:25.978Z,0
2023-04-27T20:43:06.338Z,0
2023-04-27T20:44:46.668Z,0
2023-04-27T20:46:27.055Z,0
2023-04-27T20:48:07.524Z,0
2023-04-27T20:49:47.887Z,0
2023-04-27T20:51:28.291Z,0
2023-04-27T20:53:08.718Z,0
2023-04-27T20:54:49.120Z,0
2023-04-27T20:56:29.502Z,0
2023-04-27T20:58:09.895Z,0
2023-04-27T20:59:50.233Z,0
2023-04-27T21:01:30.635Z,0
2023-04-27T21:03:11.195Z,0
2023-04-27T21:04:51.602Z,0
2023-04-27T21:06:31.927Z,0
2023-04-27T21:08:12.226Z,0
2023-04-27T21:09:52.715Z,0
2023-04-27T21:11:33.114Z,0
2023-04-27T21:13:13.515Z,0
2023-04-27T21:14:53.927Z,0
2023-04-27T21:16:34.323Z,0
2023-04-27T21:18:28.882Z,0
2023-04-27T21:19:55.053Z,0
2023-04-27T21:21:35.399Z,0
2023-04-27T21:23:15.780Z,0
2023-04-27T21:24:56.179Z,0
2023-04-27T21:26:36.579Z,0
2023-04-27T21:28:16.995Z,0
2023-04-27T21:29:57.347Z,0
2023-04-27T21:31:37.812Z,0
2023-04-27T21:33:18.203Z,0
2023-04-27T21:34:58.504Z,0
2023-04-27T21:36:38.788Z,0
2023-04-27T21:38:19.143Z,0
2023-04-27T21:39:59.500Z,0
2023-04-27T21:41:39.950Z,0
2023-04-27T21:43:20.341Z,0
2023-04-27T21:45:00.847Z,0
2023-04-27T21:46:41.223Z,0
2023-04-27T21:48:21.609Z,0
2023-04-27T21:50:02.053Z,0
2023-04-27T21:51:42.466Z,0
2023-04-27T21:53:22.928Z,0
2023-04-27T21:55:03.332Z,0
2023-04-27T21:56:43.676Z,0
2023-04-27T21:58:24.081Z,0
2023-04-27T22:00:04.455Z,0
2023-04-27T22:01:44.884Z,0
2023-04-27T22:03:25.340Z,0
2023-04-27T22:05:05.754Z,0
2023-04-27T22:06:45.951Z,0
2023-04-27T22:08:26.533Z,0
2023-04-27T22:10:06.726Z,0
2023-04-27T22:11:47.048Z,0
2023-04-27T22:13:27.398Z,0
2023-04-27T22:15:07.787Z,0
2023-04-27T22:16:48.121Z,0
2023-04-27T22:18:28.587Z,0
2023-04-27T22:20:08.961Z,0
2023-04-27T22:21:49.378Z,0
2023-04-27T22:23:29.821Z,0
2023-04-27T22:25:10.261Z,0
2023-04-27T22:26:50.722Z,0
2023-04-27T22:28:31.086Z,0
2023-04-27T22:30:11.501Z,0
2023-04-27T22:31:51.985Z,0
2023-04-27T22:33:32.322Z,0
2023-04-27T22:35:18.693Z,0
2023-04-27T22:36:53.153Z,0
2023-04-27T22:38:33.576Z,0
2023-04-27T22:40:13.929Z,0
2023-04-27T22:41:54.261Z,0
2023-04-27T22:43:34.660Z,0